sensor_id;sensor_type;location;lat;lon;timestamp;P1;durP1;ratioP1;P2;durP2;ratioP2
50649;SDS011;36621;60.058;30.346;2022-12-18T00:01:34;15.07;;;9.18;;
50649;SDS011;36621;60.058;30.346;2022-12-18T00:09:09;15.52;;;9.15;;
50649;SDS011;36621;60.058;30.346;2022-12-18T00:16:43;19.02;;;10.57;;
50649;SDS011;36621;60.058;30.346;2022-12-18T00:24:16;17.38;;;10.25;;
50649;SDS011;36621;60.058;30.346;2022-12-18T00:31:50;14.80;;;10.02;;
50649;SDS011;36621;60.058;30.346;2022-12-18T00:39:22;18.08;;;10.65;;
50649;SDS011;36621;60.058;30.346;2022-12-18T00:46:55;15.93;;;9.88;;
50649;SDS011;36621;60.058;30.346;2022-12-18T00:54:28;15.18;;;9.45;;
50649;SDS011;36621;60.058;30.346;2022-12-18T01:02:01;14.13;;;9.18;;
50649;SDS011;36621;60.058;30.346;2022-12-18T01:09:33;14.45;;;9.52;;
50649;SDS011;36621;60.058;30.346;2022-12-18T01:17:06;16.92;;;9.82;;
50649;SDS011;36621;60.058;30.346;2022-12-18T01:24:39;18.45;;;10.18;;
50649;SDS011;36621;60.058;30.346;2022-12-18T01:32:11;19.15;;;10.55;;
50649;SDS011;36621;60.058;30.346;2022-12-18T01:39:44;18.98;;;10.43;;
50649;SDS011;36621;60.058;30.346;2022-12-18T01:47:18;15.85;;;10.10;;
50649;SDS011;36621;60.058;30.346;2022-12-18T01:54:53;13.73;;;8.98;;
50649;SDS011;36621;60.058;30.346;2022-12-18T02:02:27;17.73;;;10.40;;
50649;SDS011;36621;60.058;30.346;2022-12-18T02:10:02;18.63;;;11.15;;
50649;SDS011;36621;60.058;30.346;2022-12-18T02:17:41;16.45;;;10.23;;
50649;SDS011;36621;60.058;30.346;2022-12-18T02:25:22;20.25;;;11.05;;
50649;SDS011;36621;60.058;30.346;2022-12-18T02:33:03;19.10;;;11.98;;
50649;SDS011;36621;60.058;30.346;2022-12-18T02:40:38;18.30;;;11.65;;
50649;SDS011;36621;60.058;30.346;2022-12-18T02:48:14;18.33;;;11.40;;
50649;SDS011;36621;60.058;30.346;2022-12-18T02:55:52;17.98;;;11.55;;
50649;SDS011;36621;60.058;30.346;2022-12-18T03:03:33;18.40;;;11.82;;
50649;SDS011;36621;60.058;30.346;2022-12-18T03:11:12;18.58;;;12.15;;
50649;SDS011;36621;60.058;30.346;2022-12-18T03:18:48;19.83;;;13.15;;
50649;SDS011;36621;60.058;30.346;2022-12-18T03:26:25;18.83;;;12.38;;
50649;SDS011;36621;60.058;30.346;2022-12-18T03:41:47;20.92;;;13.02;;
50649;SDS011;36621;60.058;30.346;2022-12-18T03:49:35;27.55;;;16.38;;
50649;SDS011;36621;60.058;30.346;2022-12-18T03:57:18;29.42;;;17.45;;
50649;SDS011;36621;60.058;30.346;2022-12-18T04:04:57;27.98;;;16.63;;
50649;SDS011;36621;60.058;30.346;2022-12-18T04:12:36;26.90;;;15.82;;
50649;SDS011;36621;60.058;30.346;2022-12-18T04:20:15;23.73;;;15.27;;
50649;SDS011;36621;60.058;30.346;2022-12-18T04:27:50;25.10;;;15.60;;
50649;SDS011;36621;60.058;30.346;2022-12-18T04:35:23;27.58;;;15.90;;
50649;SDS011;36621;60.058;30.346;2022-12-18T04:42:56;26.25;;;15.48;;
50649;SDS011;36621;60.058;30.346;2022-12-18T04:50:29;25.77;;;15.77;;
50649;SDS011;36621;60.058;30.346;2022-12-18T04:58:02;25.15;;;15.00;;
50649;SDS011;36621;60.058;30.346;2022-12-18T05:05:35;24.85;;;15.02;;
50649;SDS011;36621;60.058;30.346;2022-12-18T05:13:07;25.75;;;15.95;;
50649;SDS011;36621;60.058;30.346;2022-12-18T05:20:41;26.17;;;14.95;;
50649;SDS011;36621;60.058;30.346;2022-12-18T05:28:13;31.25;;;16.90;;
50649;SDS011;36621;60.058;30.346;2022-12-18T05:35:50;31.17;;;16.63;;
50649;SDS011;36621;60.058;30.346;2022-12-18T05:43:23;28.75;;;16.05;;
50649;SDS011;36621;60.058;30.346;2022-12-18T05:51:02;29.95;;;16.38;;
50649;SDS011;36621;60.058;30.346;2022-12-18T05:58:37;30.42;;;16.75;;
50649;SDS011;36621;60.058;30.346;2022-12-18T06:06:21;30.13;;;17.75;;
50649;SDS011;36621;60.058;30.346;2022-12-18T06:14:02;30.80;;;17.15;;
50649;SDS011;36621;60.058;30.346;2022-12-18T06:21:36;29.48;;;17.08;;
50649;SDS011;36621;60.058;30.346;2022-12-18T06:29:08;35.85;;;19.30;;
50649;SDS011;36621;60.058;30.346;2022-12-18T06:36:47;37.38;;;21.15;;
50649;SDS011;36621;60.058;30.346;2022-12-18T06:44:21;36.65;;;20.13;;
50649;SDS011;36621;60.058;30.346;2022-12-18T06:52:13;37.15;;;21.13;;
50649;SDS011;36621;60.058;30.346;2022-12-18T06:59:54;33.65;;;20.40;;
50649;SDS011;36621;60.058;30.346;2022-12-18T07:07:28;35.58;;;21.27;;
50649;SDS011;36621;60.058;30.346;2022-12-18T07:15:02;35.42;;;19.83;;
50649;SDS011;36621;60.058;30.346;2022-12-18T07:22:37;30.77;;;17.90;;
50649;SDS011;36621;60.058;30.346;2022-12-18T07:30:10;29.02;;;17.45;;
50649;SDS011;36621;60.058;30.346;2022-12-18T07:37:43;29.52;;;16.77;;
50649;SDS011;36621;60.058;30.346;2022-12-18T07:45:16;32.53;;;17.25;;
50649;SDS011;36621;60.058;30.346;2022-12-18T07:52:50;33.40;;;17.15;;
50649;SDS011;36621;60.058;30.346;2022-12-18T08:00:29;29.80;;;16.55;;
50649;SDS011;36621;60.058;30.346;2022-12-18T08:08:03;31.05;;;17.70;;
50649;SDS011;36621;60.058;30.346;2022-12-18T08:15:35;29.50;;;15.93;;
50649;SDS011;36621;60.058;30.346;2022-12-18T08:23:09;36.40;;;19.50;;
50649;SDS011;36621;60.058;30.346;2022-12-18T08:30:57;37.08;;;21.00;;
50649;SDS011;36621;60.058;30.346;2022-12-18T08:38:32;38.85;;;21.27;;
50649;SDS011;36621;60.058;30.346;2022-12-18T08:46:12;36.88;;;21.02;;
50649;SDS011;36621;60.058;30.346;2022-12-18T09:13:17;40.35;;;21.67;;
50649;SDS011;36621;60.058;30.346;2022-12-18T09:20:56;36.10;;;19.92;;
50649;SDS011;36621;60.058;30.346;2022-12-18T09:28:33;44.53;;;21.25;;
50649;SDS011;36621;60.058;30.346;2022-12-18T09:36:06;57.65;;;30.80;;
50649;SDS011;36621;60.058;30.346;2022-12-18T09:43:48;43.80;;;23.63;;
50649;SDS011;36621;60.058;30.346;2022-12-18T09:51:40;46.38;;;24.40;;
50649;SDS011;36621;60.058;30.346;2022-12-18T09:59:27;43.83;;;23.77;;
50649;SDS011;36621;60.058;30.346;2022-12-18T10:07:07;40.17;;;20.35;;
50649;SDS011;36621;60.058;30.346;2022-12-18T12:17:45;21.23;;;12.13;;
50649;SDS011;36621;60.058;30.346;2022-12-18T12:25:33;23.33;;;12.43;;
50649;SDS011;36621;60.058;30.346;2022-12-18T12:33:19;24.10;;;12.60;;
50649;SDS011;36621;60.058;30.346;2022-12-18T12:41:02;26.00;;;13.07;;
50649;SDS011;36621;60.058;30.346;2022-12-18T12:49:03;26.75;;;13.25;;
50649;SDS011;36621;60.058;30.346;2022-12-18T12:56:44;26.02;;;12.48;;
50649;SDS011;36621;60.058;30.346;2022-12-18T13:04:23;25.90;;;12.82;;
50649;SDS011;36621;60.058;30.346;2022-12-18T13:12:08;23.92;;;12.32;;
50649;SDS011;36621;60.058;30.346;2022-12-18T13:20:06;23.77;;;12.20;;
50649;SDS011;36621;60.058;30.346;2022-12-18T13:29:04;20.65;;;10.45;;
50649;SDS011;36621;60.058;30.346;2022-12-18T13:36:29;19.30;;;10.02;;
50649;SDS011;36621;60.058;30.346;2022-12-18T13:44:10;22.15;;;11.23;;
50649;SDS011;36621;60.058;30.346;2022-12-18T13:51:47;16.55;;;10.02;;
50649;SDS011;36621;60.058;30.346;2022-12-18T13:59:22;24.33;;;13.27;;
50649;SDS011;36621;60.058;30.346;2022-12-18T14:06:58;23.33;;;10.77;;
50649;SDS011;36621;60.058;30.346;2022-12-18T14:14:36;16.58;;;9.30;;
50649;SDS011;36621;60.058;30.346;2022-12-18T14:22:13;27.25;;;12.60;;
50649;SDS011;36621;60.058;30.346;2022-12-18T14:29:48;18.73;;;9.50;;
50649;SDS011;36621;60.058;30.346;2022-12-18T14:37:22;15.95;;;9.18;;
50649;SDS011;36621;60.058;30.346;2022-12-18T14:53:19;18.13;;;9.73;;
50649;SDS011;36621;60.058;30.346;2022-12-18T15:00:54;18.45;;;9.70;;
50649;SDS011;36621;60.058;30.346;2022-12-18T15:08:31;15.30;;;9.25;;
50649;SDS011;36621;60.058;30.346;2022-12-18T15:16:08;17.50;;;8.90;;
50649;SDS011;36621;60.058;30.346;2022-12-18T15:24:52;20.30;;;8.90;;
50649;SDS011;36621;60.058;30.346;2022-12-18T15:32:28;17.00;;;8.77;;
50649;SDS011;36621;60.058;30.346;2022-12-18T15:40:01;14.85;;;8.60;;
50649;SDS011;36621;60.058;30.346;2022-12-18T15:47:36;15.73;;;9.55;;
50649;SDS011;36621;60.058;30.346;2022-12-18T15:55:11;19.77;;;10.00;;
50649;SDS011;36621;60.058;30.346;2022-12-18T16:03:03;16.40;;;8.57;;
50649;SDS011;36621;60.058;30.346;2022-12-18T16:10:51;14.32;;;7.93;;
50649;SDS011;36621;60.058;30.346;2022-12-18T16:18:26;12.65;;;7.80;;
50649;SDS011;36621;60.058;30.346;2022-12-18T16:25:59;16.25;;;8.20;;
50649;SDS011;36621;60.058;30.346;2022-12-18T16:33:31;16.30;;;8.63;;
50649;SDS011;36621;60.058;30.346;2022-12-18T16:41:11;16.55;;;8.73;;
50649;SDS011;36621;60.058;30.346;2022-12-18T16:49:07;13.75;;;7.78;;
50649;SDS011;36621;60.058;30.346;2022-12-18T16:56:44;19.85;;;9.23;;
50649;SDS011;36621;60.058;30.346;2022-12-18T17:04:21;20.50;;;9.38;;
50649;SDS011;36621;60.058;30.346;2022-12-18T17:21:40;15.18;;;8.95;;
50649;SDS011;36621;60.058;30.346;2022-12-18T17:29:13;15.85;;;9.85;;
50649;SDS011;36621;60.058;30.346;2022-12-18T17:36:47;18.92;;;8.77;;
50649;SDS011;36621;60.058;30.346;2022-12-18T17:44:20;17.73;;;10.00;;
50649;SDS011;36621;60.058;30.346;2022-12-18T17:51:53;26.85;;;10.85;;
50649;SDS011;36621;60.058;30.346;2022-12-18T17:59:26;22.02;;;9.85;;
50649;SDS011;36621;60.058;30.346;2022-12-18T18:07:03;14.95;;;8.68;;
50649;SDS011;36621;60.058;30.346;2022-12-18T18:14:36;18.17;;;8.73;;
50649;SDS011;36621;60.058;30.346;2022-12-18T18:22:09;17.63;;;8.90;;
50649;SDS011;36621;60.058;30.346;2022-12-18T18:29:41;16.58;;;9.55;;
50649;SDS011;36621;60.058;30.346;2022-12-18T18:37:14;20.98;;;9.25;;
50649;SDS011;36621;60.058;30.346;2022-12-18T18:44:46;21.20;;;9.48;;
50649;SDS011;36621;60.058;30.346;2022-12-18T18:52:20;18.73;;;9.27;;
50649;SDS011;36621;60.058;30.346;2022-12-18T18:59:54;17.85;;;9.30;;
50649;SDS011;36621;60.058;30.346;2022-12-18T19:07:28;17.95;;;8.98;;
50649;SDS011;36621;60.058;30.346;2022-12-18T19:15:02;22.27;;;11.77;;
50649;SDS011;36621;60.058;30.346;2022-12-18T19:22:55;19.75;;;9.88;;
50649;SDS011;36621;60.058;30.346;2022-12-18T19:30:27;17.88;;;9.55;;
50649;SDS011;36621;60.058;30.346;2022-12-18T19:38:00;14.43;;;8.85;;
50649;SDS011;36621;60.058;30.346;2022-12-18T19:45:33;16.13;;;9.00;;
50649;SDS011;36621;60.058;30.346;2022-12-18T19:53:06;19.23;;;9.63;;
50649;SDS011;36621;60.058;30.346;2022-12-18T20:00:39;16.27;;;9.32;;
50649;SDS011;36621;60.058;30.346;2022-12-18T20:08:12;16.05;;;8.73;;
50649;SDS011;36621;60.058;30.346;2022-12-18T20:15:44;15.63;;;8.45;;
50649;SDS011;36621;60.058;30.346;2022-12-18T20:23:17;15.57;;;8.70;;
50649;SDS011;36621;60.058;30.346;2022-12-18T20:30:49;16.00;;;8.63;;
50649;SDS011;36621;60.058;30.346;2022-12-18T20:38:23;16.20;;;8.45;;
50649;SDS011;36621;60.058;30.346;2022-12-18T20:45:59;16.90;;;8.15;;
50649;SDS011;36621;60.058;30.346;2022-12-18T20:53:33;13.45;;;8.25;;
50649;SDS011;36621;60.058;30.346;2022-12-18T21:01:07;12.95;;;7.50;;
50649;SDS011;36621;60.058;30.346;2022-12-18T21:08:42;10.05;;;6.97;;
50649;SDS011;36621;60.058;30.346;2022-12-18T21:16:15;13.18;;;7.53;;
50649;SDS011;36621;60.058;30.346;2022-12-18T21:23:48;15.15;;;6.63;;
50649;SDS011;36621;60.058;30.346;2022-12-18T21:31:21;12.48;;;7.13;;
50649;SDS011;36621;60.058;30.346;2022-12-18T21:38:55;11.02;;;7.05;;
50649;SDS011;36621;60.058;30.346;2022-12-18T21:46:28;11.75;;;6.00;;
50649;SDS011;36621;60.058;30.346;2022-12-18T21:54:01;8.88;;;6.05;;
50649;SDS011;36621;60.058;30.346;2022-12-18T22:01:34;12.50;;;5.97;;
50649;SDS011;36621;60.058;30.346;2022-12-18T22:09:08;8.93;;;5.70;;
50649;SDS011;36621;60.058;30.346;2022-12-18T22:16:42;8.50;;;5.47;;
50649;SDS011;36621;60.058;30.346;2022-12-18T22:24:15;6.20;;;4.72;;
50649;SDS011;36621;60.058;30.346;2022-12-18T22:31:49;10.10;;;5.95;;
50649;SDS011;36621;60.058;30.346;2022-12-18T22:39:23;8.80;;;4.88;;
50649;SDS011;36621;60.058;30.346;2022-12-18T22:46:57;7.95;;;4.63;;
50649;SDS011;36621;60.058;30.346;2022-12-18T22:54:30;6.93;;;5.22;;
50649;SDS011;36621;60.058;30.346;2022-12-18T23:02:03;7.57;;;4.82;;
50649;SDS011;36621;60.058;30.346;2022-12-18T23:09:36;6.65;;;4.53;;
50649;SDS011;36621;60.058;30.346;2022-12-18T23:17:08;7.00;;;4.88;;
50649;SDS011;36621;60.058;30.346;2022-12-18T23:24:42;9.25;;;5.30;;
50649;SDS011;36621;60.058;30.346;2022-12-18T23:32:14;6.55;;;4.80;;
50649;SDS011;36621;60.058;30.346;2022-12-18T23:39:47;7.60;;;4.72;;
50649;SDS011;36621;60.058;30.346;2022-12-18T23:47:19;8.68;;;5.72;;
50649;SDS011;36621;60.058;30.346;2022-12-18T23:54:52;7.22;;;4.93;;
